createdAt,value
2019-05-22T03:29:22.856Z,4737
2019-05-22T03:34:23.001Z,6758
2019-05-22T03:39:23.062Z,8347
2019-05-22T03:44:23.205Z,9288
2019-05-22T03:49:30.245Z,10552
2019-05-22T03:54:23.420Z,12624
2019-05-22T03:59:23.575Z,14737
2019-05-22T04:04:23.784Z,16034
2019-05-22T04:09:23.907Z,16498
2019-05-22T04:14:24.126Z,16687
2019-05-22T04:19:24.207Z,16887
2019-05-22T04:24:24.302Z,17245
2019-05-22T04:29:24.393Z,17905
2019-05-22T04:34:24.502Z,18742
2019-05-22T04:39:24.566Z,18954
2019-05-22T04:44:24.749Z,20004
2019-05-22T04:49:24.913Z,20896
2019-05-22T04:54:24.949Z,21329
2019-05-22T04:59:25.035Z,21860
2019-05-22T05:04:25.157Z,22548
2019-05-22T05:09:25.320Z,23102
2019-05-22T05:14:25.435Z,24100
2019-05-22T05:19:25.540Z,24361
2019-05-22T05:24:25.746Z,24502
2019-05-22T05:29:25.922Z,24820
2019-05-22T05:34:15.990Z,24915
2019-05-22T05:39:16.196Z,25262
2019-05-22T05:44:16.311Z,25457
2019-05-22T05:49:16.413Z,25758
2019-05-22T05:54:16.478Z,26140
2019-05-22T05:59:16.633Z,26196
2019-05-22T06:04:16.864Z,26223
2019-05-22T06:09:17.128Z,26122
2019-05-22T06:14:17.181Z,26147
2019-05-22T06:19:17.274Z,26353
2019-05-22T06:24:17.552Z,26770
2019-05-22T07:14:09.840Z,29496
2019-05-22T07:18:59.062Z,29997
2019-05-22T07:48:59.858Z,31650
2019-05-22T07:59:00.106Z,31872
2019-05-22T08:09:00.361Z,32258
2019-05-22T08:14:00.314Z,33083
2019-05-22T08:19:00.389Z,33314
2019-05-22T08:24:00.507Z,34150
2019-05-22T08:29:00.607Z,33258
2019-05-22T08:34:00.707Z,32854
2019-05-22T08:39:00.846Z,32530
2019-05-22T08:44:15.032Z,32653
2019-05-22T08:49:00.999Z,33895
2019-05-22T08:54:05.265Z,36686
2019-05-22T08:59:21.271Z,35618
2019-05-22T09:04:21.560Z,35050
2019-05-22T09:09:21.661Z,34975
2019-05-22T09:14:21.745Z,34033
2019-05-22T09:19:21.865Z,34869
2019-05-22T09:24:22.044Z,35634
2019-05-22T09:29:22.221Z,37250
2019-05-22T09:34:22.314Z,37116
2019-05-22T09:39:22.424Z,35696
2019-05-22T09:44:22.636Z,36252
2019-05-22T09:49:23.980Z,34553
2019-05-22T09:54:22.812Z,33970
2019-05-22T09:59:23.009Z,33949
2019-05-22T10:09:23.271Z,33386
2019-05-22T10:14:23.351Z,33479
2019-05-22T10:19:23.489Z,33687
2019-05-22T10:24:23.971Z,33558
2019-05-22T10:29:24.011Z,33797
2019-05-22T10:34:24.162Z,33766
2019-05-22T10:39:24.879Z,33835
2019-05-22T10:44:24.590Z,34251
2019-05-22T10:49:24.682Z,33906
2019-05-22T10:54:24.945Z,33486
2019-05-22T10:59:25.072Z,33357
2019-05-22T11:04:25.163Z,33947
2019-05-22T11:09:25.262Z,34662
2019-05-22T11:34:05.705Z,34160
2019-05-22T11:54:08.997Z,32919
2019-05-22T12:19:06.496Z,33304
2019-05-22T12:23:56.604Z,32850
2019-05-22T12:29:06.746Z,32364
2019-05-22T12:33:56.815Z,32589
2019-05-22T12:39:06.994Z,32833
2019-05-22T12:43:57.104Z,32775
2019-05-22T12:49:08.916Z,33310
2019-05-22T12:53:57.280Z,33707
2019-05-22T12:59:07.496Z,33828
2019-05-22T13:03:57.549Z,34264
2019-05-22T13:09:08.081Z,33520
2019-05-22T13:13:37.684Z,33539
2019-05-22T13:23:37.803Z,32968
2019-05-22T13:33:38.026Z,32686
2019-05-22T13:43:38.301Z,32842
2019-05-22T13:53:38.492Z,32828
2019-05-22T14:03:38.710Z,32670
2019-05-22T14:13:38.921Z,32844
2019-05-22T14:23:39.231Z,32563
2019-05-22T14:33:40.453Z,31739
2019-05-22T14:43:39.782Z,32302
2019-05-22T14:48:39.870Z,31867
2019-05-22T14:53:39.954Z,30892
2019-05-22T14:58:40.016Z,30508
2019-05-22T15:03:40.088Z,30296
2019-05-22T15:08:40.150Z,30575
2019-05-22T15:13:40.300Z,30924
2019-05-22T15:18:40.380Z,31247
2019-05-22T15:23:40.445Z,30343
2019-05-22T15:28:40.542Z,29235
2019-05-22T15:33:40.677Z,29637
2019-05-22T15:38:40.796Z,28840
2019-05-22T15:43:40.884Z,28664
2019-05-22T15:48:41.244Z,28310
2019-05-22T15:53:41.152Z,27414
2019-05-22T15:58:31.347Z,27134
2019-05-22T16:03:31.416Z,28008
2019-05-22T16:08:31.489Z,28854
2019-05-22T16:13:31.642Z,29324
2019-05-22T16:18:31.755Z,28922
2019-05-22T16:23:31.879Z,28616
2019-05-22T16:33:32.256Z,27365
2019-05-22T16:38:32.477Z,26621
2019-05-22T16:43:47.789Z,26206
2019-05-22T16:48:32.512Z,25209
2019-05-22T16:53:32.708Z,24563
2019-05-22T16:58:32.775Z,23589
2019-05-22T17:03:32.846Z,22510
2019-05-22T17:08:32.953Z,22368
2019-05-22T17:13:33.051Z,23310
2019-05-22T17:18:46.353Z,24286
2019-05-22T17:23:33.288Z,24751
2019-05-22T17:33:34.833Z,23968
2019-05-22T17:38:34.059Z,23513
2019-05-22T17:43:34.181Z,22622
2019-05-22T17:58:34.554Z,19454
2019-05-22T18:08:34.676Z,19793
2019-05-22T18:40:35.674Z,13000
2019-05-22T18:45:35.637Z,10594
2019-05-22T18:50:35.886Z,7982
2019-05-22T18:55:36.130Z,4737
2019-05-22T19:00:36.067Z,1563
